Terminal Aerodrome Forecast
Issued by NWS Omaha/Valley, NE

Home | Current Version | Previous Version | Text Only | Print | Product List | Glossary On
Versions: 1 2 3 4 5 6 7 8 9 10 11 12 13 14 15 16 17 18 19 20 21 22 23 24 25 26 27 28 29 30 31 32 33
721
FTUS43 KOAX 282320
TAFLNK
TAF
KLNK 282320Z 2900/2924 14013KT P6SM VCTS SCT040CB BKN250
      TEMPO 2900/2902 VRB15G25KT
     FM290300 16006KT P6SM FEW040 BKN250
     FM290900 15004KT 6SM BR SCT040 BKN100
     FM291600 17007KT P6SM SCT040 BKN150=

USA.gov is the U.S. government's official web portal to all federal, state and local government web resources and services.